createdAt,value
2022-10-23T00:01:32.322Z,14.66
2022-10-23T00:04:02.286Z,14.80
2022-10-23T00:06:30.509Z,14.93
2022-10-23T00:08:57.790Z,14.91
2022-10-23T00:11:27.494Z,14.99
2022-10-23T00:13:56.813Z,14.87
2022-10-23T00:16:23.744Z,14.72
2022-10-23T00:18:50.736Z,14.33
2022-10-23T00:21:18.493Z,14.25
2022-10-23T00:23:46.294Z,14.35
2022-10-23T00:26:17.525Z,14.48
2022-10-23T00:28:46.837Z,14.24
2022-10-23T00:31:14.831Z,14.00
2022-10-23T00:33:43.138Z,14.10
2022-10-23T00:36:13.434Z,14.33
2022-10-23T00:38:43.580Z,14.35
2022-10-23T00:41:22.134Z,14.19
2022-10-23T00:44:17.872Z,14.32
2022-10-23T00:46:46.490Z,14.52
2022-10-23T00:49:14.794Z,14.60
2022-10-23T00:51:49.154Z,14.55
2022-10-23T00:54:23.955Z,14.57
2022-10-23T00:56:54.785Z,14.50
2022-10-23T00:59:21.944Z,14.64
2022-10-23T01:01:49.202Z,14.52
2022-10-23T01:04:17.052Z,14.40
2022-10-23T01:06:46.794Z,13.78
2022-10-23T01:09:40.023Z,13.63
2022-10-23T01:12:09.425Z,13.64
2022-10-23T01:15:00.963Z,14.03
2022-10-23T01:17:42.472Z,13.69
2022-10-23T01:20:28.019Z,13.46
2022-10-23T01:23:17.829Z,13.11
2022-10-23T01:26:19.856Z,13.14
2022-10-23T01:28:53.669Z,13.08
2022-10-23T01:31:50.809Z,12.83
2022-10-23T01:34:28.632Z,12.58
2022-10-23T01:36:57.365Z,12.49
2022-10-23T01:39:37.425Z,12.47
2022-10-23T01:42:10.722Z,12.49
2022-10-23T01:45:13.364Z,12.26
2022-10-23T01:47:45.217Z,12.28
2022-10-23T01:50:16.449Z,12.34
2022-10-23T01:52:46.526Z,12.45
2022-10-23T01:55:14.620Z,12.46
2022-10-23T01:57:44.679Z,12.49
2022-10-23T02:00:14.916Z,12.66
2022-10-23T02:02:55.794Z,12.90
2022-10-23T02:05:31.031Z,13.04
2022-10-23T02:08:00.810Z,13.28
2022-10-23T02:11:09.277Z,13.61
2022-10-23T02:13:57.302Z,13.42
2022-10-23T02:16:32.665Z,13.67
2022-10-23T02:19:32.834Z,13.84
2022-10-23T02:22:16.655Z,13.97
2022-10-23T02:24:55.553Z,14.06
2022-10-23T02:27:30.703Z,14.25
2022-10-23T02:30:05.386Z,14.33
2022-10-23T02:32:33.761Z,14.39
2022-10-23T02:35:00.973Z,14.31
2022-10-23T02:37:27.932Z,14.37
2022-10-23T02:39:55.479Z,14.43
2022-10-23T02:42:34.494Z,14.26
2022-10-23T02:45:24.580Z,14.49
2022-10-23T02:48:15.509Z,14.44
2022-10-23T02:50:52.314Z,14.58
2022-10-23T02:53:27.848Z,14.52
2022-10-23T02:56:14.011Z,14.66
2022-10-23T02:59:13.841Z,14.70
2022-10-23T03:02:07.094Z,14.48
2022-10-23T03:04:40.298Z,14.62
2022-10-23T03:07:14.820Z,14.39
2022-10-23T03:09:42.792Z,13.99
2022-10-23T03:12:09.772Z,13.93
2022-10-23T03:14:37.481Z,13.71
2022-10-23T03:17:05.563Z,13.59
2022-10-23T03:19:32.440Z,13.49
2022-10-23T03:21:59.447Z,13.56
2022-10-23T03:24:26.409Z,13.65
2022-10-23T03:26:53.424Z,13.90
2022-10-23T03:29:29.811Z,14.02
2022-10-23T03:31:57.076Z,14.20
2022-10-23T03:34:24.016Z,14.12
2022-10-23T03:36:53.221Z,14.13
2022-10-23T03:39:20.964Z,14.18
2022-10-23T03:41:48.234Z,14.12
2022-10-23T03:44:16.764Z,14.31
2022-10-23T03:46:45.250Z,14.30
2022-10-23T03:49:12.143Z,14.25
2022-10-23T03:51:44.872Z,14.01
2022-10-23T03:54:11.801Z,13.97
2022-10-23T03:56:38.744Z,14.02
2022-10-23T03:59:07.828Z,14.04
2022-10-23T04:01:34.997Z,14.10
2022-10-23T04:04:02.015Z,14.39
2022-10-23T04:06:29.499Z,14.55
2022-10-23T04:08:58.486Z,14.75
2022-10-23T04:11:25.501Z,14.92
2022-10-23T04:13:52.678Z,15.09
2022-10-23T04:16:19.596Z,15.20
2022-10-23T04:18:46.671Z,15.23
2022-10-23T04:21:13.828Z,15.33
2022-10-23T04:23:40.745Z,15.46
2022-10-23T04:26:16.863Z,15.55
2022-10-23T04:28:43.788Z,15.54
2022-10-23T04:31:10.849Z,15.50
2022-10-23T04:33:40.766Z,15.42
2022-10-23T04:36:08.264Z,15.34
2022-10-23T04:38:35.123Z,15.32
2022-10-23T04:41:03.220Z,15.37
2022-10-23T04:43:30.170Z,15.51
2022-10-23T04:45:57.654Z,15.60
2022-10-23T04:48:27.024Z,15.79
2022-10-23T04:51:14.499Z,15.85
2022-10-23T04:53:53.333Z,15.96
2022-10-23T04:56:46.262Z,15.87
2022-10-23T04:59:18.982Z,15.92
2022-10-23T05:01:46.828Z,15.84
2022-10-23T05:04:14.375Z,15.77
2022-10-23T05:07:07.562Z,15.67
2022-10-23T05:09:52.115Z,15.48
2022-10-23T05:12:26.699Z,15.59
2022-10-23T05:14:54.398Z,15.65
2022-10-23T05:17:26.201Z,15.68
2022-10-23T05:19:57.999Z,15.74
2022-10-23T05:22:27.387Z,15.74
2022-10-23T05:24:54.873Z,15.60
2022-10-23T05:27:26.412Z,15.69
2022-10-23T05:29:54.857Z,15.67
2022-10-23T05:32:29.717Z,15.60
2022-10-23T05:34:58.901Z,15.62
2022-10-23T05:37:29.133Z,15.67
2022-10-23T05:40:22.994Z,15.68
2022-10-23T05:42:54.311Z,15.70
2022-10-23T05:45:31.153Z,15.68
2022-10-23T05:48:33.950Z,15.62
2022-10-23T05:51:22.568Z,15.70
2022-10-23T05:54:08.382Z,15.74
2022-10-23T05:56:43.579Z,15.79
2022-10-23T05:59:22.825Z,15.84
2022-10-23T06:01:53.985Z,15.86
2022-10-23T06:04:34.921Z,15.94
2022-10-23T06:07:26.559Z,16.02
2022-10-23T06:09:55.878Z,16.00
2022-10-23T06:12:23.107Z,15.95
2022-10-23T06:14:51.965Z,15.96
2022-10-23T06:17:20.956Z,15.93
2022-10-23T06:19:48.393Z,15.96
2022-10-23T06:24:56.093Z,15.96
2022-10-23T06:27:26.352Z,15.75
2022-10-23T06:29:55.067Z,15.80
2022-10-23T06:32:22.737Z,16.10
2022-10-23T06:35:09.562Z,16.39
2022-10-23T06:37:36.571Z,16.62
2022-10-23T06:40:17.505Z,16.80
2022-10-23T06:43:16.331Z,16.90
2022-10-23T06:46:04.696Z,17.00
2022-10-23T06:48:54.576Z,17.02
2022-10-23T06:51:29.725Z,17.05
2022-10-23T06:53:57.367Z,17.21
2022-10-23T06:56:50.852Z,17.23
2022-10-23T06:59:23.972Z,17.23
2022-10-23T07:04:25.405Z,17.49
2022-10-23T07:06:57.261Z,17.52
2022-10-23T07:09:30.030Z,17.57
2022-10-23T07:11:57.006Z,17.52
2022-10-23T07:14:32.942Z,17.80
2022-10-23T07:17:02.160Z,17.90
2022-10-23T07:19:29.369Z,17.85
2022-10-23T07:21:58.045Z,17.74
2022-10-23T07:24:40.267Z,17.83
2022-10-23T07:27:18.336Z,17.89
2022-10-23T07:29:50.555Z,18.03
2022-10-23T07:32:17.990Z,18.07
2022-10-23T07:35:03.569Z,18.18
2022-10-23T07:37:34.319Z,18.35
2022-10-23T07:40:07.334Z,18.29
2022-10-23T07:42:42.771Z,18.55
2022-10-23T07:45:11.451Z,18.51
2022-10-23T07:47:42.506Z,18.42
2022-10-23T07:50:12.425Z,18.59
2022-10-23T07:52:39.308Z,18.73
2022-10-23T07:55:11.730Z,18.78
2022-10-23T07:57:52.411Z,18.80
2022-10-23T08:00:30.678Z,18.55
2022-10-23T08:03:10.767Z,18.53
2022-10-23T08:05:37.734Z,18.72
2022-10-23T08:08:05.285Z,18.83
2022-10-23T08:10:32.680Z,18.78
2022-10-23T08:13:00.251Z,18.85
2022-10-23T08:15:49.842Z,18.87
2022-10-23T08:18:37.052Z,18.99
2022-10-23T08:21:04.857Z,19.06
2022-10-23T08:23:33.645Z,18.99
2022-10-23T08:26:03.182Z,18.91
2022-10-23T08:28:32.882Z,18.87
2022-10-23T08:31:11.627Z,18.95
2022-10-23T08:33:40.258Z,19.17
2022-10-23T08:36:18.483Z,19.36
2022-10-23T08:38:45.958Z,19.40
2022-10-23T08:41:38.731Z,19.32
2022-10-23T08:44:17.429Z,19.36
2022-10-23T08:46:50.023Z,19.42
2022-10-23T08:49:56.617Z,19.61
2022-10-23T08:52:47.961Z,19.49
2022-10-23T08:55:23.223Z,19.50
2022-10-23T08:58:15.900Z,19.33
2022-10-23T09:00:44.181Z,19.25
2022-10-23T09:03:13.045Z,19.21
2022-10-23T09:05:51.932Z,19.52
2022-10-23T09:08:33.218Z,19.55
2022-10-23T09:11:20.277Z,19.60
2022-10-23T09:13:50.168Z,19.85
2022-10-23T09:16:25.970Z,19.62
2022-10-23T09:18:54.338Z,20.10
2022-10-23T09:21:25.368Z,19.81
2022-10-23T09:23:52.274Z,19.64
2022-10-23T09:26:19.211Z,19.87
2022-10-23T09:28:57.766Z,19.91
2022-10-23T09:31:24.686Z,19.65
2022-10-23T09:33:59.881Z,19.84
2022-10-23T09:36:29.460Z,20.01
2022-10-23T09:39:00.862Z,20.07
2022-10-23T09:41:39.558Z,20.05
2022-10-23T10:17:44.485Z,20.46
2022-10-23T10:20:48.159Z,20.80
2022-10-23T10:23:36.616Z,20.77
2022-10-23T10:26:25.354Z,21.10
2022-10-23T10:29:24.066Z,20.56
2022-10-23T10:32:02.698Z,20.71
2022-10-23T10:34:46.273Z,20.73
2022-10-23T10:37:16.031Z,20.59
2022-10-23T10:39:54.703Z,20.43
2022-10-23T10:42:36.404Z,20.50
2022-10-23T10:45:15.273Z,20.57
2022-10-23T10:47:51.994Z,20.66
2022-10-23T10:50:39.247Z,20.70
2022-10-23T10:53:52.286Z,20.79
2022-10-23T10:56:22.090Z,20.50
2022-10-23T10:58:57.882Z,20.64
2022-10-23T11:02:02.063Z,20.91
2022-10-23T11:05:01.227Z,20.74
2022-10-23T11:07:35.212Z,20.90
2022-10-23T11:10:14.431Z,21.25
2022-10-23T11:12:43.706Z,21.03
2022-10-23T11:15:21.037Z,21.27
2022-10-23T11:17:53.722Z,20.99
2022-10-23T11:20:50.870Z,21.35
2022-10-23T11:23:41.649Z,21.29
2022-10-23T11:26:23.997Z,20.95
2022-10-23T11:28:56.772Z,20.67
2022-10-23T11:31:36.649Z,20.83
2022-10-23T11:34:18.263Z,20.80
2022-10-23T11:36:54.565Z,20.67
2022-10-23T11:39:29.904Z,20.71
2022-10-23T11:42:06.455Z,21.01
2022-10-23T11:44:46.392Z,21.09
2022-10-23T11:47:38.965Z,21.16
2022-10-23T11:50:06.783Z,21.02
2022-10-23T11:53:12.758Z,21.26
2022-10-23T11:55:42.189Z,21.00
2022-10-23T11:58:23.707Z,21.35
2022-10-23T12:01:04.392Z,20.98
2022-10-23T12:03:49.477Z,20.89
2022-10-23T12:06:27.286Z,21.30
2022-10-23T12:09:00.104Z,21.26
2022-10-23T12:11:48.617Z,21.12
2022-10-23T12:14:31.760Z,20.58
2022-10-23T12:16:59.808Z,20.84
2022-10-23T12:19:30.375Z,20.99
2022-10-23T12:22:01.933Z,21.15
2022-10-23T12:24:58.254Z,21.18
2022-10-23T12:27:41.881Z,21.04
2022-10-23T12:30:34.453Z,20.98
2022-10-23T12:33:25.359Z,21.03
2022-10-23T12:36:07.121Z,20.97
2022-10-23T12:38:39.886Z,20.78
2022-10-23T12:41:31.598Z,20.57
2022-10-23T12:44:04.450Z,20.88
2022-10-23T12:46:35.886Z,21.12
2022-10-23T12:49:23.707Z,21.03
2022-10-23T12:52:00.940Z,21.05
2022-10-23T12:54:31.034Z,21.26
2022-10-23T12:56:58.212Z,21.18
2022-10-23T12:59:38.979Z,21.23
2022-10-23T13:02:25.496Z,21.15
2022-10-23T13:04:55.268Z,21.01
2022-10-23T13:07:27.046Z,21.06
2022-10-23T13:09:58.879Z,21.26
2022-10-23T13:12:31.033Z,20.91
2022-10-23T13:15:07.133Z,20.88
2022-10-23T13:17:38.114Z,20.94
2022-10-23T13:21:04.169Z,21.13
2022-10-23T13:23:34.196Z,21.24
2022-10-23T13:26:06.946Z,20.97
2022-10-23T13:28:35.317Z,20.75
2022-10-23T13:31:06.970Z,20.61
2022-10-23T13:33:40.766Z,20.58
2022-10-23T13:36:13.536Z,20.77
2022-10-23T13:38:46.355Z,20.94
2022-10-23T13:41:18.816Z,21.00
2022-10-23T13:43:47.153Z,21.04
2022-10-23T13:46:21.935Z,20.90
2022-10-23T13:48:49.351Z,20.82
2022-10-23T13:51:21.251Z,20.74
2022-10-23T13:53:48.554Z,20.72
2022-10-23T13:56:17.330Z,20.82
2022-10-23T13:58:44.483Z,20.70
2022-10-23T14:01:30.073Z,20.61
2022-10-23T14:03:58.792Z,20.54
2022-10-23T14:06:26.195Z,20.51
2022-10-23T14:08:53.236Z,20.55
2022-10-23T14:11:21.028Z,20.54
2022-10-23T14:13:48.610Z,20.46
2022-10-23T14:16:18.114Z,20.37
2022-10-23T14:18:45.097Z,20.28
2022-10-23T14:21:14.190Z,20.22
2022-10-23T14:23:41.244Z,20.12
2022-10-23T14:26:11.153Z,20.08
2022-10-23T14:28:38.768Z,20.04
2022-10-23T14:31:07.506Z,19.97
2022-10-23T14:33:34.400Z,19.89
2022-10-23T14:36:01.414Z,19.82
2022-10-23T14:38:28.636Z,19.74
2022-10-23T14:40:55.618Z,19.71
2022-10-23T14:43:23.703Z,19.60
2022-10-23T14:45:50.647Z,19.51
2022-10-23T14:48:18.221Z,19.44
2022-10-23T14:50:47.762Z,19.33
2022-10-23T14:53:15.444Z,19.26
2022-10-23T14:55:42.501Z,19.14
2022-10-23T14:58:09.505Z,18.96
2022-10-23T15:00:36.400Z,18.84
2022-10-23T15:03:03.331Z,18.64
2022-10-23T15:05:30.170Z,18.53
2022-10-23T15:07:58.591Z,18.42
2022-10-23T15:10:25.513Z,18.37
2022-10-23T15:12:52.368Z,18.27
2022-10-23T15:15:19.433Z,18.25
2022-10-23T15:17:46.284Z,18.19
2022-10-23T15:20:13.229Z,18.07
2022-10-23T15:22:40.167Z,18.00
2022-10-23T15:25:07.751Z,17.91
2022-10-23T15:27:35.454Z,17.77
2022-10-23T15:30:02.731Z,17.66
2022-10-23T15:32:29.580Z,17.58
2022-10-23T15:34:58.343Z,17.46
2022-10-23T15:37:25.212Z,17.40
2022-10-23T15:39:52.509Z,17.29
2022-10-23T15:42:19.464Z,17.17
2022-10-23T15:44:46.319Z,17.10
2022-10-23T15:47:13.226Z,17.04
2022-10-23T15:49:40.191Z,16.94
2022-10-23T15:54:40.677Z,16.85
2022-10-23T15:57:07.533Z,16.76
2022-10-23T15:59:34.697Z,16.76
2022-10-23T16:02:01.875Z,16.79
2022-10-23T16:04:28.971Z,16.87
2022-10-23T16:06:55.850Z,16.87
2022-10-23T16:09:22.721Z,16.71
2022-10-23T16:11:49.592Z,16.43
2022-10-23T16:14:17.657Z,16.37
2022-10-23T16:16:44.797Z,16.43
2022-10-23T16:19:12.178Z,16.50
2022-10-23T16:21:39.075Z,16.43
2022-10-23T16:24:07.752Z,16.48
2022-10-23T16:26:36.031Z,16.39
2022-10-23T16:29:06.287Z,16.14
2022-10-23T16:31:34.323Z,16.02
2022-10-23T16:34:03.271Z,16.00
2022-10-23T16:36:30.611Z,15.78
2022-10-23T16:39:14.953Z,15.40
2022-10-23T16:42:00.537Z,15.11
2022-10-23T16:44:38.243Z,15.05
2022-10-23T16:47:06.391Z,15.11
2022-10-23T16:49:33.396Z,15.16
2022-10-23T16:52:00.266Z,15.28
2022-10-23T16:54:27.580Z,15.37
2022-10-23T16:56:54.456Z,15.45
2022-10-23T16:59:21.314Z,15.57
2022-10-23T17:01:48.350Z,15.56
2022-10-23T17:04:15.354Z,15.58
2022-10-23T17:06:42.330Z,15.51
2022-10-23T17:09:09.237Z,15.47
2022-10-23T17:11:39.619Z,15.47
2022-10-23T17:14:14.020Z,15.44
2022-10-23T17:16:45.828Z,15.63
2022-10-23T17:19:39.670Z,15.68
2022-10-23T17:22:02.449Z,15.63
2022-10-23T17:24:29.557Z,15.44
2022-10-23T17:26:57.023Z,15.49
2022-10-23T17:29:23.999Z,15.89
2022-10-23T17:31:51.179Z,15.80
2022-10-23T17:34:21.278Z,15.74
2022-10-23T17:36:51.770Z,15.53
2022-10-23T17:39:22.052Z,15.45
2022-10-23T17:41:49.619Z,15.01
2022-10-23T17:44:16.710Z,14.74
2022-10-23T17:46:43.939Z,14.70
2022-10-23T17:49:11.999Z,14.87
2022-10-23T17:51:39.492Z,15.15
2022-10-23T17:54:09.435Z,14.88
2022-10-23T17:56:38.532Z,15.34
2022-10-23T17:59:09.489Z,15.28
2022-10-23T18:01:36.547Z,15.61
2022-10-23T18:04:06.717Z,15.15
2022-10-23T18:06:45.509Z,15.35
2022-10-23T18:09:13.124Z,15.54
2022-10-23T18:11:45.389Z,15.74
2022-10-23T18:14:14.202Z,15.83
2022-10-23T18:16:41.911Z,15.91
2022-10-23T18:19:10.465Z,16.14
2022-10-23T18:21:38.196Z,16.21
2022-10-23T18:24:05.403Z,16.32
2022-10-23T18:26:35.324Z,16.34
2022-10-23T18:29:05.316Z,15.82
2022-10-23T18:31:32.197Z,15.83
2022-10-23T18:34:05.080Z,16.03
2022-10-23T18:36:35.776Z,15.94
2022-10-23T18:39:04.763Z,16.39
2022-10-23T18:41:36.407Z,16.49
2022-10-23T18:44:03.922Z,16.29
2022-10-23T18:46:31.163Z,16.32
2022-10-23T18:48:58.119Z,16.40
2022-10-23T18:51:33.674Z,16.59
2022-10-23T18:54:02.315Z,16.45
2022-10-23T18:56:29.498Z,16.36
2022-10-23T18:58:58.790Z,16.54
2022-10-23T19:01:27.311Z,16.56
2022-10-23T19:06:24.251Z,16.33
2022-10-23T19:08:51.946Z,15.58
2022-10-23T19:11:21.209Z,15.10
2022-10-23T19:13:48.153Z,14.71
2022-10-23T19:16:18.601Z,14.00
2022-10-23T19:18:50.346Z,14.12
2022-10-23T19:21:20.574Z,14.06
2022-10-23T19:23:49.388Z,13.64
2022-10-23T19:26:16.887Z,13.29
2022-10-23T19:28:47.043Z,13.06
2022-10-23T19:31:14.172Z,12.61
2022-10-23T19:33:41.487Z,12.17
2022-10-23T19:36:12.539Z,11.91
2022-10-23T19:38:41.610Z,11.78
2022-10-23T19:41:08.991Z,11.77
2022-10-23T19:43:37.851Z,11.85
2022-10-23T19:46:09.431Z,11.88
2022-10-23T19:48:42.610Z,11.80
2022-10-23T19:51:09.639Z,11.96
2022-10-23T19:53:36.805Z,12.07
2022-10-23T19:56:06.012Z,12.36
2022-10-23T19:58:33.546Z,12.58
2022-10-23T20:01:11.005Z,12.67
2022-10-23T20:03:39.362Z,12.82
2022-10-23T20:06:12.542Z,12.94
2022-10-23T20:08:40.773Z,13.11
2022-10-23T20:11:08.038Z,13.46
2022-10-23T20:13:35.518Z,13.44
2022-10-23T20:16:02.403Z,13.00
2022-10-23T20:18:29.385Z,12.94
2022-10-23T20:20:56.341Z,12.65
2022-10-23T20:23:23.240Z,12.83
2022-10-23T20:25:50.119Z,13.11
2022-10-23T20:28:17.099Z,13.08
2022-10-23T20:30:45.566Z,13.18
2022-10-23T20:33:12.517Z,13.34
2022-10-23T20:35:42.799Z,13.33
2022-10-23T20:38:10.004Z,13.28
2022-10-23T20:40:37.228Z,13.13
2022-10-23T20:43:04.443Z,13.21
2022-10-23T20:45:31.369Z,13.20
2022-10-23T20:47:58.832Z,13.47
2022-10-23T20:50:25.795Z,13.57
2022-10-23T20:52:52.694Z,13.73
2022-10-23T20:55:20.073Z,13.66
2022-10-23T20:57:47.360Z,13.23
2022-10-23T21:00:15.385Z,13.28
2022-10-23T21:02:43.891Z,13.70
2022-10-23T21:05:13.120Z,13.85
2022-10-23T21:07:39.980Z,13.89
2022-10-23T21:10:07.381Z,14.02
2022-10-23T21:12:34.492Z,13.77
2022-10-23T21:15:01.357Z,13.69
2022-10-23T21:17:29.381Z,13.54
2022-10-23T21:19:56.270Z,13.48
2022-10-23T21:22:23.129Z,13.43
2022-10-23T21:24:49.967Z,13.20
2022-10-23T21:27:17.323Z,12.77
2022-10-23T21:29:44.194Z,12.75
2022-10-23T21:32:11.087Z,12.71
2022-10-23T21:34:38.004Z,12.33
2022-10-23T21:37:13.103Z,11.77
2022-10-23T21:39:44.775Z,11.53
2022-10-23T21:42:15.166Z,11.39
2022-10-23T21:44:42.225Z,11.57
2022-10-23T21:47:09.517Z,11.48
2022-10-23T21:49:36.575Z,11.50
2022-10-23T21:52:04.335Z,11.52
2022-10-23T21:54:31.332Z,11.57
2022-10-23T21:56:58.274Z,11.57
2022-10-23T21:59:30.033Z,11.56
2022-10-23T22:01:58.908Z,11.60
2022-10-23T22:04:26.068Z,11.74
2022-10-23T22:06:53.396Z,11.79
2022-10-23T22:09:21.194Z,11.96
2022-10-23T22:11:52.939Z,12.00
2022-10-23T22:14:20.480Z,12.07
2022-10-23T22:16:48.389Z,11.83
2022-10-23T22:19:17.665Z,11.49
2022-10-23T22:21:44.910Z,11.63
2022-10-23T22:24:12.370Z,11.74
2022-10-23T22:26:45.333Z,11.88
2022-10-23T22:29:18.687Z,12.05
2022-10-23T22:31:48.887Z,12.28
2022-10-23T22:37:11.308Z,12.42
2022-10-23T22:39:39.211Z,12.53
2022-10-23T22:42:06.417Z,12.70
2022-10-23T22:44:33.266Z,12.81
2022-10-23T22:47:00.191Z,13.04
2022-10-23T22:49:27.021Z,13.18
2022-10-23T22:51:53.891Z,13.24
2022-10-23T22:54:20.874Z,13.17
2022-10-23T22:56:47.770Z,13.13
2022-10-23T22:59:14.618Z,13.20
2022-10-23T23:01:45.415Z,12.95
2022-10-23T23:04:36.726Z,13.04
2022-10-23T23:07:00.380Z,12.95
2022-10-23T23:09:27.375Z,12.77
2022-10-23T23:11:54.278Z,12.57
2022-10-23T23:14:23.765Z,12.54
2022-10-23T23:16:53.341Z,12.47
2022-10-23T23:19:22.987Z,12.51
2022-10-23T23:21:50.367Z,12.57
2022-10-23T23:24:17.333Z,12.67
2022-10-23T23:26:44.335Z,12.82
2022-10-23T23:29:11.532Z,12.91
2022-10-23T23:31:38.521Z,13.18
2022-10-23T23:34:05.599Z,13.49
2022-10-23T23:36:33.944Z,13.64
2022-10-23T23:39:01.478Z,13.75
2022-10-23T23:41:29.640Z,13.80
2022-10-23T23:43:58.198Z,13.86
2022-10-23T23:46:26.454Z,13.95
2022-10-23T23:48:53.433Z,13.81
2022-10-23T23:51:23.355Z,13.70
2022-10-23T23:53:51.393Z,13.17
2022-10-23T23:56:19.590Z,13.16
2022-10-23T23:58:46.601Z,13.05
